Time;durP1;ratioP1;P1;durP2;ratioP2;P2;SDS_P1;SDS_P2;PMS_P1;PMS_P2;Temp;Humidity;BMP_temperature;BMP_pressure;BME280_temperature;BME280_humidity;BME280_pressure;Samples;Min_cycle;Max_cycle;Signal;HPM_P1;HPM_P2
2021/06/14 00:01:05;;;;;;;;;1.00;1.00;;;;;;;;5078343;28;8773;-40
2021/06/14 00:03:31;;;;;;;;;0.33;0.33;;;;;;;;5079650;28;8785;-40
2021/06/14 00:05:56;;;;;;;;;0.33;0.33;;;;;;;;5082107;28;8774;-40
2021/06/14 00:08:23;;;;;;;;;0.33;0.33;;;;;;;;5088575;27;8800;-40
2021/06/14 00:10:51;;;;;;;;;0.50;0.50;;;;;;;;5090569;28;9600;-40
2021/06/14 00:13:16;;;;;;;;;0.50;0.50;;;;;;;;5077308;28;9504;-40
2021/06/14 00:15:43;;;;;;;;;1.00;1.00;;;;;;;;5084016;28;8801;-40
2021/06/14 00:18:08;;;;;;;;;0.50;0.50;;;;;;;;5078994;28;8747;-40
2021/06/14 00:20:34;;;;;;;;;1.00;1.00;;;;;;;;5079398;28;8844;-40
2021/06/14 00:23:00;;;;;;;;;1.25;1.00;;;;;;;;5078588;28;9521;-39
2021/06/14 00:25:26;;;;;;;;;1.00;1.00;;;;;;;;5075610;28;8800;-40
2021/06/14 00:27:52;;;;;;;;;1.00;1.00;;;;;;;;5079895;28;8781;-40
2021/06/14 00:30:21;;;;;;;;;1.00;1.00;;;;;;;;5082789;28;8836;-40
2021/06/14 00:32:47;;;;;;;;;1.00;1.00;;;;;;;;5077753;28;8774;-40
2021/06/14 00:35:12;;;;;;;;;1.33;1.33;;;;;;;;5074130;28;8786;-40
2021/06/14 00:37:37;;;;;;;;;2.00;2.00;;;;;;;;5079793;28;8781;-39
2021/06/14 00:40:03;;;;;;;;;1.00;1.00;;;;;;;;5083048;28;8920;-40
2021/06/14 00:42:28;;;;;;;;;1.00;1.00;;;;;;;;5077426;28;8808;-40
2021/06/14 00:44:53;;;;;;;;;1.33;1.33;;;;;;;;5085194;28;8915;-39
2021/06/14 00:47:18;;;;;;;;;1.67;1.00;;;;;;;;5095638;28;9488;-40
2021/06/14 00:49:44;;;;;;;;;2.00;1.33;;;;;;;;5092315;28;8784;-40
2021/06/14 00:52:09;;;;;;;;;1.00;1.00;;;;;;;;5080302;28;8801;-40
2021/06/14 00:54:34;;;;;;;;;1.00;1.00;;;;;;;;5089424;28;8807;-40
2021/06/14 00:56:59;;;;;;;;;0.67;0.67;;;;;;;;5084804;28;8782;-40
2021/06/14 00:59:25;;;;;;;;;1.00;1.00;;;;;;;;5091137;27;8866;-40
2021/06/14 01:01:50;;;;;;;;;1.00;1.00;;;;;;;;5092702;28;8781;-40
2021/06/14 01:04:17;;;;;;;;;1.00;1.00;;;;;;;;5080182;28;8793;-40
2021/06/14 01:06:42;;;;;;;;;1.00;1.00;;;;;;;;5077027;28;8785;-40
2021/06/14 01:09:07;;;;;;;;;1.67;1.67;;;;;;;;5077805;28;8773;-40
2021/06/14 01:11:32;;;;;;;;;1.00;1.00;;;;;;;;5077739;28;8770;-40
2021/06/14 01:14:02;;;;;;;;;1.00;1.00;;;;;;;;5080806;27;8771;-40
2021/06/14 01:16:30;;;;;;;;;1.00;1.00;;;;;;;;5091850;28;8905;-40
2021/06/14 01:18:55;;;;;;;;;1.00;1.00;;;;;;;;5078386;28;8804;-40
2021/06/14 01:21:28;;;;;;;;;1.00;1.00;;;;;;;;5093976;28;8794;-40
2021/06/14 01:24:12;;;;;;;;;1.00;1.00;;;;;;;;5095741;27;8777;-40
2021/06/14 01:26:46;;;;;;;;;0.00;0.00;;;;;;;;5091077;28;8769;-40
2021/06/14 01:29:12;;;;;;;;;0.50;0.50;;;;;;;;5096926;28;8775;-40
2021/06/14 01:31:38;;;;;;;;;0.00;0.00;;;;;;;;5093729;27;8746;-40
2021/06/14 01:34:04;;;;;;;;;1.00;1.00;;;;;;;;5096926;28;10427;-40
2021/06/14 01:36:31;;;;;;;;;0.00;0.00;;;;;;;;5094870;27;8770;-40
2021/06/14 01:38:57;;;;;;;;;1.00;1.00;;;;;;;;5095765;27;8771;-40
2021/06/14 01:41:27;;;;;;;;;2.00;1.33;;;;;;;;5098205;27;8761;-40
2021/06/14 01:43:52;;;;;;;;;1.00;1.00;;;;;;;;5099983;28;8802;-40
2021/06/14 01:46:22;;;;;;;;;1.00;1.00;;;;;;;;5094760;27;8751;-40
2021/06/14 01:48:47;;;;;;;;;1.00;1.00;;;;;;;;5069475;28;8797;-40
2021/06/14 01:51:14;;;;;;;;;3.00;2.00;;;;;;;;5077980;28;8812;-40
2021/06/14 01:53:39;;;;;;;;;1.50;1.50;;;;;;;;5068777;28;8795;-40
2021/06/14 01:56:09;;;;;;;;;0.00;0.00;;;;;;;;5080452;28;8796;-40
2021/06/14 01:58:36;;;;;;;;;0.00;0.00;;;;;;;;5076887;28;8877;-40
2021/06/14 02:01:01;;;;;;;;;1.00;1.00;;;;;;;;5084558;28;8785;-39
2021/06/14 02:03:28;;;;;;;;;1.00;1.00;;;;;;;;5079817;28;8782;-40
2021/06/14 02:05:54;;;;;;;;;0.00;0.00;;;;;;;;5083902;28;8876;-40
2021/06/14 02:08:20;;;;;;;;;0.25;0.25;;;;;;;;5080379;28;8766;-40
2021/06/14 02:10:47;;;;;;;;;1.00;1.00;;;;;;;;5084349;28;8802;-40
2021/06/14 02:13:12;;;;;;;;;0.00;0.00;;;;;;;;5080530;28;8986;-39
2021/06/14 02:15:37;;;;;;;;;0.00;0.00;;;;;;;;5079284;28;9610;-40
2021/06/14 02:18:04;;;;;;;;;0.00;0.00;;;;;;;;5079636;28;8779;-40
2021/06/14 02:20:29;;;;;;;;;0.75;0.50;;;;;;;;5086057;28;8782;-39
2021/06/14 02:22:55;;;;;;;;;1.00;0.67;;;;;;;;5079498;28;8817;-40
2021/06/14 02:25:20;;;;;;;;;1.00;1.00;;;;;;;;5083950;28;8789;-40
2021/06/14 02:27:45;;;;;;;;;1.00;1.00;;;;;;;;5078359;28;8812;-39
2021/06/14 02:30:18;;;;;;;;;0.00;0.00;;;;;;;;5085186;28;8806;-40
2021/06/14 02:32:44;;;;;;;;;1.00;1.00;;;;;;;;5079918;28;8781;-40
2021/06/14 02:35:11;;;;;;;;;0.00;0.00;;;;;;;;5092610;28;8781;-40
2021/06/14 02:37:37;;;;;;;;;0.00;0.00;;;;;;;;5098879;27;8769;-40
2021/06/14 02:40:04;;;;;;;;;0.00;0.00;;;;;;;;5095892;28;8803;-40
2021/06/14 02:42:29;;;;;;;;;0.00;0.00;;;;;;;;5096963;28;8854;-40
2021/06/14 02:44:55;;;;;;;;;2.00;1.00;;;;;;;;5091732;28;8779;-40
2021/06/14 02:47:20;;;;;;;;;1.00;0.33;;;;;;;;5097399;28;8770;-40
2021/06/14 02:49:45;;;;;;;;;1.00;1.00;;;;;;;;5095610;28;8789;-40
2021/06/14 02:52:12;;;;;;;;;0.33;0.33;;;;;;;;5102002;27;8873;-40
2021/06/14 02:54:58;;;;;;;;;0.00;0.00;;;;;;;;5090477;28;9542;-40
2021/06/14 02:57:27;;;;;;;;;1.00;1.00;;;;;;;;5099359;27;8765;-40
2021/06/14 02:59:53;;;;;;;;;0.00;0.00;;;;;;;;5092236;28;8769;-39
2021/06/14 03:02:22;;;;;;;;;0.33;0.33;;;;;;;;5098638;27;8762;-40
2021/06/14 03:04:47;;;;;;;;;0.00;0.00;;;;;;;;5097955;27;8757;-40
2021/06/14 03:07:12;;;;;;;;;0.00;0.00;;;;;;;;5097777;27;8797;-40
2021/06/14 03:09:38;;;;;;;;;1.00;1.00;;;;;;;;5096424;28;9387;-40
2021/06/14 03:12:04;;;;;;;;;0.67;0.67;;;;;;;;5102942;27;8811;-40
2021/06/14 03:14:30;;;;;;;;;1.00;1.00;;;;;;;;5098367;27;8868;-40
2021/06/14 03:16:55;;;;;;;;;1.00;0.50;;;;;;;;5096917;27;8779;-39
2021/06/14 03:19:22;;;;;;;;;0.00;0.00;;;;;;;;5101408;27;8781;-40
2021/06/14 03:21:47;;;;;;;;;1.00;0.75;;;;;;;;5100122;28;9660;-40
2021/06/14 03:24:14;;;;;;;;;0.00;0.00;;;;;;;;5098431;27;8772;-40
2021/06/14 03:26:40;;;;;;;;;1.00;1.00;;;;;;;;5099299;27;8784;-40
2021/06/14 03:29:07;;;;;;;;;0.00;0.00;;;;;;;;5095912;27;8764;-40
2021/06/14 03:31:32;;;;;;;;;0.00;0.00;;;;;;;;5093006;27;8776;-40
2021/06/14 03:33:58;;;;;;;;;0.00;0.00;;;;;;;;5075961;28;9368;-40
2021/06/14 03:36:27;;;;;;;;;0.00;0.00;;;;;;;;5082234;28;8788;-40
2021/06/14 03:38:52;;;;;;;;;0.00;0.00;;;;;;;;5091313;27;8777;-40
2021/06/14 03:41:19;;;;;;;;;0.00;0.00;;;;;;;;5083434;28;8768;-40
2021/06/14 03:43:44;;;;;;;;;0.25;0.25;;;;;;;;5075222;28;8772;-40
2021/06/14 03:46:09;;;;;;;;;0.00;0.00;;;;;;;;5079105;28;8790;-40
2021/06/14 03:48:35;;;;;;;;;0.00;0.00;;;;;;;;5092201;27;8791;-40
2021/06/14 03:51:00;;;;;;;;;0.00;0.00;;;;;;;;5089348;27;8820;-40
2021/06/14 03:53:31;;;;;;;;;0.00;0.00;;;;;;;;5082135;28;8793;-39
2021/06/14 03:55:57;;;;;;;;;0.00;0.00;;;;;;;;5081749;28;8758;-40
2021/06/14 03:58:22;;;;;;;;;0.00;0.00;;;;;;;;5080799;28;8785;-40
2021/06/14 04:00:47;;;;;;;;;0.00;0.00;;;;;;;;5082702;28;8785;-40
2021/06/14 04:03:12;;;;;;;;;0.00;0.00;;;;;;;;5076619;28;9496;-40
2021/06/14 04:05:38;;;;;;;;;0.00;0.00;;;;;;;;5083433;28;8774;-40
2021/06/14 04:08:03;;;;;;;;;1.00;1.00;;;;;;;;5085828;27;8785;-40
2021/06/14 04:10:28;;;;;;;;;0.00;0.00;;;;;;;;5097504;28;8888;-40
2021/06/14 04:12:54;;;;;;;;;0.00;0.00;;;;;;;;5078769;28;8832;-40
2021/06/14 04:15:19;;;;;;;;;0.00;0.00;;;;;;;;5078453;28;8982;-40
2021/06/14 04:17:44;;;;;;;;;0.33;0.00;;;;;;;;5078417;28;8771;-40
2021/06/14 04:20:10;;;;;;;;;0.00;0.00;;;;;;;;5081310;28;8793;-40
2021/06/14 04:22:35;;;;;;;;;0.00;0.00;;;;;;;;5081729;27;8932;-40
2021/06/14 04:25:00;;;;;;;;;0.00;0.00;;;;;;;;5097778;28;8798;-40
2021/06/14 04:27:25;;;;;;;;;0.00;0.00;;;;;;;;5095431;27;8785;-40
2021/06/14 04:29:51;;;;;;;;;0.00;0.00;;;;;;;;5080271;28;8827;-40
2021/06/14 04:32:16;;;;;;;;;0.00;0.00;;;;;;;;5075693;28;8876;-40
2021/06/14 04:34:41;;;;;;;;;0.00;0.00;;;;;;;;5081734;28;8820;-40
2021/06/14 04:37:07;;;;;;;;;0.00;0.00;;;;;;;;5096578;27;8827;-40
2021/06/14 04:39:32;;;;;;;;;0.00;0.00;;;;;;;;5096013;28;8842;-40
2021/06/14 04:41:57;;;;;;;;;0.00;0.00;;;;;;;;5091386;27;8784;-40
2021/06/14 04:44:23;;;;;;;;;0.67;0.00;;;;;;;;5091608;28;8780;-40
2021/06/14 04:46:49;;;;;;;;;0.00;0.00;;;;;;;;5082421;27;8777;-40
2021/06/14 04:49:14;;;;;;;;;0.00;0.00;;;;;;;;5094580;28;9444;-40
2021/06/14 04:51:39;;;;;;;;;0.00;0.00;;;;;;;;5096292;28;8888;-40
2021/06/14 04:54:04;;;;;;;;;0.00;0.00;;;;;;;;5096324;28;8805;-40
2021/06/14 04:56:30;;;;;;;;;0.00;0.00;;;;;;;;5080159;28;8766;-40
2021/06/14 04:58:55;;;;;;;;;0.00;0.00;;;;;;;;5071331;28;8791;-40
2021/06/14 05:01:20;;;;;;;;;0.00;0.00;;;;;;;;5071723;28;8824;-40
2021/06/14 05:03:45;;;;;;;;;0.33;0.00;;;;;;;;5100200;28;8877;-40
2021/06/14 05:06:11;;;;;;;;;0.00;0.00;;;;;;;;5079768;28;9590;-40
2021/06/14 05:08:36;;;;;;;;;0.00;0.00;;;;;;;;5077741;28;8756;-40
2021/06/14 05:11:01;;;;;;;;;0.00;0.00;;;;;;;;5084782;27;8764;-40
2021/06/14 05:13:27;;;;;;;;;0.00;0.00;;;;;;;;5103682;28;9552;-40
2021/06/14 05:15:52;;;;;;;;;0.00;0.00;;;;;;;;5102461;27;8773;-40
2021/06/14 05:18:17;;;;;;;;;0.00;0.00;;;;;;;;5101568;28;8803;-40
2021/06/14 05:20:42;;;;;;;;;0.00;0.00;;;;;;;;5084900;28;8780;-40
2021/06/14 05:23:08;;;;;;;;;0.00;0.00;;;;;;;;5091949;28;8809;-40
2021/06/14 05:25:33;;;;;;;;;0.67;0.00;;;;;;;;5099703;27;8773;-40
2021/06/14 05:27:58;;;;;;;;;0.00;0.00;;;;;;;;5084553;28;8797;-40
2021/06/14 05:30:24;;;;;;;;;1.00;1.00;;;;;;;;5079433;28;8809;-36
2021/06/14 05:32:51;;;;;;;;;1.00;0.00;;;;;;;;5081835;28;8794;-37
2021/06/14 05:35:16;;;;;;;;;0.00;0.00;;;;;;;;5077894;28;8793;-37
2021/06/14 05:37:41;;;;;;;;;0.00;0.00;;;;;;;;5081650;28;8786;-37
2021/06/14 05:40:08;;;;;;;;;0.00;0.00;;;;;;;;5080975;28;8789;-37
2021/06/14 05:42:34;;;;;;;;;0.00;0.00;;;;;;;;5078270;28;8782;-38
2021/06/14 05:44:59;;;;;;;;;0.00;0.00;;;;;;;;5081421;28;9536;-37
2021/06/14 05:47:24;;;;;;;;;0.00;0.00;;;;;;;;5079485;28;8793;-36
2021/06/14 05:49:49;;;;;;;;;0.00;0.00;;;;;;;;5075779;28;8857;-37
2021/06/14 05:52:15;;;;;;;;;0.00;0.00;;;;;;;;5074777;28;8825;-40
2021/06/14 05:54:40;;;;;;;;;0.00;0.00;;;;;;;;5061494;28;8830;-38
2021/06/14 05:57:06;;;;;;;;;0.00;0.00;;;;;;;;5052823;28;8831;-38
2021/06/14 05:59:31;;;;;;;;;0.00;0.00;;;;;;;;5069953;28;8765;-38
2021/06/14 06:01:56;;;;;;;;;0.00;0.00;;;;;;;;5080287;27;11441;-37
2021/06/14 06:04:21;;;;;;;;;0.00;0.00;;;;;;;;5097990;27;9527;-38
2021/06/14 06:06:46;;;;;;;;;0.00;0.00;;;;;;;;5076169;28;8878;-38
2021/06/14 06:09:12;;;;;;;;;0.00;0.00;;;;;;;;5073410;28;8934;-37
2021/06/14 06:11:37;;;;;;;;;0.00;0.00;;;;;;;;5084227;27;9524;-37
2021/06/14 06:14:02;;;;;;;;;0.67;0.00;;;;;;;;5089730;27;8760;-37
2021/06/14 06:16:27;;;;;;;;;0.00;0.00;;;;;;;;5074159;28;8938;-39
2021/06/14 06:18:53;;;;;;;;;0.00;0.00;;;;;;;;5075411;28;8789;-40
2021/06/14 06:21:18;;;;;;;;;0.00;0.00;;;;;;;;5076144;28;8849;-39
2021/06/14 06:23:43;;;;;;;;;0.00;0.00;;;;;;;;5077446;28;8820;-39
2021/06/14 06:26:08;;;;;;;;;0.00;0.00;;;;;;;;5081568;28;9799;-39
2021/06/14 06:28:34;;;;;;;;;0.00;0.00;;;;;;;;5092497;27;8812;-39
2021/06/14 06:30:59;;;;;;;;;0.00;0.00;;;;;;;;5095824;28;8860;-39
2021/06/14 06:33:24;;;;;;;;;0.00;0.00;;;;;;;;5095684;27;8776;-39
2021/06/14 06:35:49;;;;;;;;;0.00;0.00;;;;;;;;5094853;28;9365;-39
2021/06/14 06:38:15;;;;;;;;;0.00;0.00;;;;;;;;5094569;28;9572;-40
2021/06/14 06:40:40;;;;;;;;;0.00;0.00;;;;;;;;5091738;28;8769;-39
2021/06/14 06:43:05;;;;;;;;;0.00;0.00;;;;;;;;5076583;28;8817;-40
2021/06/14 06:45:31;;;;;;;;;0.00;0.00;;;;;;;;5092096;28;8942;-39
2021/06/14 06:47:56;;;;;;;;;1.00;0.00;;;;;;;;5087335;28;8778;-40
2021/06/14 06:50:21;;;;;;;;;1.00;0.00;;;;;;;;5078422;28;8776;-39
2021/06/14 06:52:47;;;;;;;;;0.00;0.00;;;;;;;;5075547;28;8790;-40
2021/06/14 06:55:13;;;;;;;;;0.00;0.00;;;;;;;;5077151;28;8790;-39
2021/06/14 06:57:38;;;;;;;;;0.00;0.00;;;;;;;;5076950;28;8760;-39
2021/06/14 07:00:12;;;;;;;;;0.33;0.00;;;;;;;;5090707;27;8841;-40
2021/06/14 07:02:37;;;;;;;;;0.00;0.00;;;;;;;;5096898;28;8950;-40
2021/06/14 07:05:03;;;;;;;;;0.00;0.00;;;;;;;;5096599;27;9724;-40
2021/06/14 07:07:28;;;;;;;;;0.00;0.00;;;;;;;;5091256;28;8791;-39
2021/06/14 07:09:53;;;;;;;;;0.00;0.00;;;;;;;;5075319;28;8828;-40
2021/06/14 07:12:19;;;;;;;;;0.00;0.00;;;;;;;;5075691;28;8825;-40
2021/06/14 07:14:44;;;;;;;;;0.00;0.00;;;;;;;;5071778;28;8814;-40
2021/06/14 07:17:10;;;;;;;;;0.00;0.00;;;;;;;;5075015;28;8796;-40
2021/06/14 07:19:35;;;;;;;;;0.00;0.00;;;;;;;;5073435;28;8745;-40
2021/06/14 07:22:00;;;;;;;;;0.00;0.00;;;;;;;;5078490;28;8804;-39
2021/06/14 07:24:25;;;;;;;;;0.00;0.00;;;;;;;;5093061;27;8823;-39
2021/06/14 07:26:50;;;;;;;;;0.00;0.00;;;;;;;;5096531;28;9559;-39
2021/06/14 07:29:16;;;;;;;;;0.00;0.00;;;;;;;;5085924;28;8809;-40
2021/06/14 07:31:41;;;;;;;;;0.00;0.00;;;;;;;;5078690;28;8821;-40
2021/06/14 07:34:08;;;;;;;;;0.00;0.00;;;;;;;;5093621;28;9569;-40
2021/06/14 07:36:33;;;;;;;;;0.00;0.00;;;;;;;;5076705;28;8870;-39
2021/06/14 07:38:58;;;;;;;;;0.00;0.00;;;;;;;;5072679;28;8793;-39
2021/06/14 07:41:24;;;;;;;;;0.00;0.00;;;;;;;;5084147;28;8783;-40
2021/06/14 07:43:49;;;;;;;;;0.00;0.00;;;;;;;;5094575;27;8911;-40
2021/06/14 07:46:15;;;;;;;;;0.00;0.00;;;;;;;;5096099;28;8799;-41
2021/06/14 07:48:40;;;;;;;;;0.00;0.00;;;;;;;;5071329;28;8839;-39
2021/06/14 07:51:07;;;;;;;;;0.00;0.00;;;;;;;;5075598;28;9836;-40
2021/06/14 07:53:32;;;;;;;;;0.00;0.00;;;;;;;;5072225;28;8789;-39
2021/06/14 07:55:58;;;;;;;;;0.00;0.00;;;;;;;;5074343;28;9565;-40
2021/06/14 07:58:24;;;;;;;;;0.00;0.00;;;;;;;;5071524;28;8782;-40
2021/06/14 08:00:49;;;;;;;;;0.00;0.00;;;;;;;;5075583;28;10852;-39
2021/06/14 08:03:14;;;;;;;;;0.00;0.00;;;;;;;;5072700;28;8778;-39
2021/06/14 08:05:40;;;;;;;;;0.00;0.00;;;;;;;;5088117;27;8777;-40
2021/06/14 08:08:05;;;;;;;;;0.00;0.00;;;;;;;;5095148;28;8898;-39
2021/06/14 08:10:30;;;;;;;;;0.00;0.00;;;;;;;;5093181;27;8816;-39
2021/06/14 08:12:56;;;;;;;;;0.00;0.00;;;;;;;;5095703;28;8947;-40
2021/06/14 08:15:25;;;;;;;;;0.00;0.00;;;;;;;;5075866;28;8899;-39
2021/06/14 08:17:51;;;;;;;;;0.00;0.00;;;;;;;;5075643;28;8813;-40
2021/06/14 08:25:29;;;;;;;;;0.00;0.00;;;;;;;;5074003;28;9522;-40
2021/06/14 08:27:54;;;;;;;;;0.67;0.67;;;;;;;;5072684;28;8878;-40
2021/06/14 08:30:21;;;;;;;;;0.67;0.67;;;;;;;;5073751;28;8929;-40
2021/06/14 08:32:46;;;;;;;;;0.00;0.00;;;;;;;;5086426;27;8775;-40
2021/06/14 08:35:14;;;;;;;;;0.00;0.00;;;;;;;;5096923;28;8769;-40
2021/06/14 08:37:39;;;;;;;;;1.00;0.00;;;;;;;;5093365;28;8766;-40
2021/06/14 08:40:05;;;;;;;;;0.00;0.00;;;;;;;;5093426;28;8771;-40
2021/06/14 08:42:30;;;;;;;;;0.00;0.00;;;;;;;;5094017;27;8753;-40
2021/06/14 08:44:56;;;;;;;;;0.00;0.00;;;;;;;;5078488;28;8854;-44
2021/06/14 08:47:22;;;;;;;;;0.33;0.33;;;;;;;;5075374;28;8806;-42
2021/06/14 08:49:47;;;;;;;;;1.00;1.00;;;;;;;;5078744;28;8797;-41
2021/06/14 08:52:13;;;;;;;;;0.33;0.33;;;;;;;;5078315;28;9549;-41
2021/06/14 08:54:42;;;;;;;;;0.00;0.00;;;;;;;;5099918;28;8833;-42
2021/06/14 08:57:08;;;;;;;;;1.00;0.25;;;;;;;;5094453;28;8792;-41
2021/06/14 08:59:33;;;;;;;;;0.00;0.00;;;;;;;;5086169;27;8773;-41
2021/06/14 09:01:59;;;;;;;;;1.00;1.00;;;;;;;;5078691;28;8789;-41
2021/06/14 09:04:24;;;;;;;;;0.33;0.33;;;;;;;;5089817;28;8801;-41
2021/06/14 09:06:49;;;;;;;;;1.00;1.00;;;;;;;;5098694;27;11428;-41
2021/06/14 09:09:15;;;;;;;;;0.67;0.67;;;;;;;;5097394;28;8789;-41
2021/06/14 09:11:51;;;;;;;;;1.00;1.00;;;;;;;;5083991;28;8790;-42
2021/06/14 09:14:17;;;;;;;;;0.00;0.00;;;;;;;;5077112;28;8785;-42
2021/06/14 09:16:42;;;;;;;;;0.00;0.00;;;;;;;;5074050;28;8793;-42
2021/06/14 09:19:21;;;;;;;;;0.00;0.00;;;;;;;;5077653;28;8793;-41
2021/06/14 09:21:49;;;;;;;;;1.00;1.00;;;;;;;;5075257;28;8830;-41
2021/06/14 09:24:14;;;;;;;;;1.00;1.00;;;;;;;;5076873;28;8769;-41
2021/06/14 09:26:43;;;;;;;;;1.00;1.00;;;;;;;;5073387;28;8778;-42
2021/06/14 09:29:12;;;;;;;;;0.75;0.75;;;;;;;;5073362;28;8785;-42
2021/06/14 09:31:37;;;;;;;;;1.25;1.25;;;;;;;;5086960;28;8762;-42
2021/06/14 09:34:03;;;;;;;;;0.00;0.00;;;;;;;;5069515;28;8802;-42
2021/06/14 09:36:29;;;;;;;;;1.00;1.00;;;;;;;;5068188;28;8785;-42
2021/06/14 09:39:04;;;;;;;;;0.00;0.00;;;;;;;;5071611;28;9125;-41
2021/06/14 09:41:36;;;;;;;;;0.75;0.00;;;;;;;;5077314;28;8793;-42
2021/06/14 09:44:01;;;;;;;;;1.00;1.00;;;;;;;;5073554;28;8774;-42
2021/06/14 09:46:28;;;;;;;;;0.33;0.33;;;;;;;;5078384;28;8805;-42
2021/06/14 09:48:55;;;;;;;;;0.00;0.00;;;;;;;;5076569;28;8789;-41
2021/06/14 09:51:20;;;;;;;;;0.00;0.00;;;;;;;;4995618;28;10209;-44
2021/06/14 09:53:49;;;;;;;;;0.00;0.00;;;;;;;;5078545;28;9533;-44
2021/06/14 09:56:19;;;;;;;;;0.25;0.25;;;;;;;;5077732;28;8774;-44
2021/06/14 09:58:46;;;;;;;;;0.50;0.50;;;;;;;;5074966;28;8782;-45
2021/06/14 10:01:12;;;;;;;;;1.00;0.00;;;;;;;;5078334;28;9527;-46
2021/06/14 10:03:45;;;;;;;;;0.75;0.25;;;;;;;;5076396;28;8804;-47
2021/06/14 10:06:11;;;;;;;;;0.75;0.75;;;;;;;;5091032;27;9511;-48
2021/06/14 10:08:36;;;;;;;;;0.00;0.00;;;;;;;;5085574;28;8817;-45
2021/06/14 10:11:07;;;;;;;;;0.33;0.33;;;;;;;;5080404;28;8779;-44
2021/06/14 10:13:33;;;;;;;;;0.00;0.00;;;;;;;;5096302;27;8873;-43
2021/06/14 10:16:02;;;;;;;;;1.00;1.00;;;;;;;;5100103;27;8792;-43
2021/06/14 10:18:31;;;;;;;;;0.50;0.50;;;;;;;;5093280;27;11602;-43
2021/06/14 10:20:56;;;;;;;;;0.50;0.50;;;;;;;;5081932;28;8806;-44
2021/06/14 10:23:22;;;;;;;;;2.00;0.67;;;;;;;;5074605;28;9549;-42
2021/06/14 10:25:47;;;;;;;;;1.33;1.33;;;;;;;;5081212;28;8766;-42
2021/06/14 10:28:12;;;;;;;;;0.00;0.00;;;;;;;;5094450;27;8817;-40
2021/06/14 10:30:38;;;;;;;;;1.00;0.67;;;;;;;;5095556;28;8975;-39
2021/06/14 10:33:04;;;;;;;;;0.67;0.67;;;;;;;;5091417;28;8772;-38
2021/06/14 10:35:29;;;;;;;;;1.50;0.75;;;;;;;;5094412;28;8781;-40
2021/06/14 10:37:55;;;;;;;;;0.33;0.33;;;;;;;;5094383;27;8904;-46
2021/06/14 10:40:26;;;;;;;;;0.00;0.00;;;;;;;;5095536;28;8804;-43
2021/06/14 10:42:52;;;;;;;;;1.50;1.50;;;;;;;;5095932;28;8896;-44
2021/06/14 10:45:19;;;;;;;;;1.00;1.00;;;;;;;;5093777;28;8856;-42
2021/06/14 10:47:46;;;;;;;;;0.75;0.75;;;;;;;;5093174;27;8901;-42
2021/06/14 10:50:14;;;;;;;;;1.00;1.00;;;;;;;;5085479;28;8812;-42
2021/06/14 10:52:40;;;;;;;;;0.50;0.50;;;;;;;;5079946;28;8814;-45
2021/06/14 10:55:10;;;;;;;;;1.25;0.75;;;;;;;;5093688;28;8813;-42
2021/06/14 10:57:36;;;;;;;;;0.50;0.50;;;;;;;;5078607;28;8853;-43
2021/06/14 11:00:01;;;;;;;;;0.67;0.67;;;;;;;;5075280;28;8836;-43
2021/06/14 11:02:26;;;;;;;;;0.00;0.00;;;;;;;;5082571;28;8804;-42
2021/06/14 11:05:02;;;;;;;;;0.67;0.67;;;;;;;;5089060;28;8790;-45
2021/06/14 11:07:30;;;;;;;;;0.25;0.25;;;;;;;;5073826;28;8896;-43
2021/06/14 11:09:56;;;;;;;;;0.75;0.75;;;;;;;;5078265;28;8902;-44
2021/06/14 11:12:25;;;;;;;;;0.00;0.00;;;;;;;;5077375;28;8766;-42
2021/06/14 11:14:51;;;;;;;;;0.25;0.25;;;;;;;;5074811;28;8776;-41
2021/06/14 11:17:24;;;;;;;;;0.00;0.00;;;;;;;;5073907;28;8790;-41
2021/06/14 11:20:09;;;;;;;;;1.00;1.00;;;;;;;;5074356;28;8792;-41
2021/06/14 11:22:42;;;;;;;;;1.00;0.75;;;;;;;;5074526;28;8879;-41
2021/06/14 11:25:16;;;;;;;;;0.00;0.00;;;;;;;;5078189;28;8889;-41
2021/06/14 11:27:41;;;;;;;;;0.75;0.00;;;;;;;;5073087;28;8769;-41
2021/06/14 11:30:15;;;;;;;;;0.00;0.00;;;;;;;;5072287;28;8866;-41
2021/06/14 11:32:40;;;;;;;;;0.00;0.00;;;;;;;;5083503;28;8781;-41
2021/06/14 11:35:06;;;;;;;;;0.33;0.00;;;;;;;;5084736;28;8825;-41
2021/06/14 11:37:37;;;;;;;;;0.00;0.00;;;;;;;;5076708;28;8817;-42
2021/06/14 11:40:03;;;;;;;;;0.75;0.75;;;;;;;;5091216;28;9557;-41
2021/06/14 11:42:40;;;;;;;;;0.00;0.00;;;;;;;;5075955;28;8788;-41
2021/06/14 11:45:07;;;;;;;;;0.00;0.00;;;;;;;;5071373;28;8794;-41
2021/06/14 11:47:38;;;;;;;;;0.00;0.00;;;;;;;;5092327;27;8794;-41
2021/06/14 11:50:04;;;;;;;;;0.75;0.75;;;;;;;;5090827;27;8893;-41
2021/06/14 11:52:32;;;;;;;;;0.00;0.00;;;;;;;;5076103;28;8828;-41
2021/06/14 11:54:59;;;;;;;;;0.00;0.00;;;;;;;;5096539;27;8785;-41
2021/06/14 11:57:26;;;;;;;;;1.00;0.50;;;;;;;;5077677;28;8774;-41
2021/06/14 11:59:51;;;;;;;;;0.00;0.00;;;;;;;;5084305;28;8787;-41
2021/06/14 12:02:22;;;;;;;;;0.00;0.00;;;;;;;;5086396;28;8787;-41
2021/06/14 12:04:51;;;;;;;;;0.75;0.75;;;;;;;;5071688;28;8840;-41
2021/06/14 12:07:25;;;;;;;;;0.00;0.00;;;;;;;;5074845;28;8793;-40
2021/06/14 12:09:50;;;;;;;;;0.00;0.00;;;;;;;;5074102;28;8834;-41
2021/06/14 12:12:15;;;;;;;;;0.00;0.00;;;;;;;;5073301;28;8862;-40
2021/06/14 12:14:49;;;;;;;;;0.00;0.00;;;;;;;;5081370;28;8793;-41
2021/06/14 12:17:22;;;;;;;;;0.00;0.00;;;;;;;;5082108;28;8867;-40
2021/06/14 12:19:47;;;;;;;;;0.00;0.00;;;;;;;;5071210;28;8790;-41
2021/06/14 12:22:18;;;;;;;;;0.00;0.00;;;;;;;;5076879;28;8832;-40
2021/06/14 12:24:43;;;;;;;;;0.00;0.00;;;;;;;;5072873;28;8785;-41
2021/06/14 12:27:09;;;;;;;;;0.00;0.00;;;;;;;;5088735;28;8778;-41
2021/06/14 12:29:34;;;;;;;;;0.00;0.00;;;;;;;;5082172;28;8793;-41
2021/06/14 12:32:07;;;;;;;;;0.00;0.00;;;;;;;;5083119;27;8785;-41
2021/06/14 12:34:34;;;;;;;;;0.00;0.00;;;;;;;;5089703;28;9612;-41
2021/06/14 12:37:05;;;;;;;;;0.00;0.00;;;;;;;;5073599;28;8814;-41
2021/06/14 12:39:31;;;;;;;;;1.00;0.00;;;;;;;;5071327;28;8782;-41
2021/06/14 12:41:56;;;;;;;;;0.00;0.00;;;;;;;;5071989;28;8811;-41
2021/06/14 12:44:21;;;;;;;;;0.00;0.00;;;;;;;;5073351;28;8762;-41
2021/06/14 12:46:46;;;;;;;;;0.00;0.00;;;;;;;;5073475;28;8766;-41
2021/06/14 12:49:12;;;;;;;;;0.00;0.00;;;;;;;;5069187;28;9644;-41
2021/06/14 12:51:38;;;;;;;;;0.00;0.00;;;;;;;;5072770;28;8902;-41
2021/06/14 12:54:04;;;;;;;;;0.00;0.00;;;;;;;;5085798;27;8964;-40
2021/06/14 12:56:29;;;;;;;;;0.00;0.00;;;;;;;;5094579;28;8897;-40
2021/06/14 12:58:54;;;;;;;;;0.00;0.00;;;;;;;;5093967;28;8780;-40
2021/06/14 13:01:22;;;;;;;;;0.00;0.00;;;;;;;;5096519;28;8811;-40
2021/06/14 13:03:48;;;;;;;;;0.00;0.00;;;;;;;;5094393;28;8772;-40
2021/06/14 13:06:13;;;;;;;;;0.00;0.00;;;;;;;;5092401;28;8784;-40
2021/06/14 13:08:44;;;;;;;;;0.00;0.00;;;;;;;;5092553;28;8826;-41
2021/06/14 13:11:10;;;;;;;;;0.00;0.00;;;;;;;;5093921;28;8780;-41
2021/06/14 13:13:36;;;;;;;;;0.00;0.00;;;;;;;;5095767;27;8768;-40
2021/06/14 13:16:08;;;;;;;;;0.00;0.00;;;;;;;;5098226;27;8782;-41
2021/06/14 13:18:35;;;;;;;;;0.00;0.00;;;;;;;;5074007;28;8794;-40
2021/06/14 13:21:10;;;;;;;;;0.00;0.00;;;;;;;;5085593;27;8771;-41
2021/06/14 13:23:47;;;;;;;;;0.00;0.00;;;;;;;;5082564;28;8824;-40
2021/06/14 13:26:13;;;;;;;;;0.00;0.00;;;;;;;;5071293;28;9728;-40
2021/06/14 13:28:42;;;;;;;;;0.00;0.00;;;;;;;;5077406;28;8816;-42
2021/06/14 13:31:12;;;;;;;;;0.00;0.00;;;;;;;;5102738;27;8824;-42
2021/06/14 13:33:45;;;;;;;;;0.00;0.00;;;;;;;;5076926;28;8794;-42
2021/06/14 13:36:11;;;;;;;;;0.25;0.00;;;;;;;;5075343;28;10371;-41
2021/06/14 13:38:36;;;;;;;;;0.00;0.00;;;;;;;;5087475;27;8788;-41
2021/06/14 13:41:04;;;;;;;;;0.00;0.00;;;;;;;;5098182;27;8765;-41
2021/06/14 13:43:31;;;;;;;;;0.00;0.00;;;;;;;;5096931;27;8814;-41
2021/06/14 13:45:57;;;;;;;;;0.00;0.00;;;;;;;;5099905;27;8796;-41
2021/06/14 13:48:23;;;;;;;;;0.00;0.00;;;;;;;;5074608;28;8786;-41
2021/06/14 13:50:50;;;;;;;;;0.00;0.00;;;;;;;;5076218;28;8798;-41
2021/06/14 13:53:16;;;;;;;;;0.00;0.00;;;;;;;;5082415;28;8869;-41
2021/06/14 13:55:49;;;;;;;;;0.00;0.00;;;;;;;;5095793;27;8738;-41
2021/06/14 13:58:15;;;;;;;;;0.00;0.00;;;;;;;;5096938;27;8772;-41
2021/06/14 14:00:41;;;;;;;;;0.00;0.00;;;;;;;;5092654;28;8973;-41
2021/06/14 14:03:06;;;;;;;;;0.00;0.00;;;;;;;;5094139;27;8782;-41
2021/06/14 14:05:32;;;;;;;;;0.00;0.00;;;;;;;;5085317;27;9608;-41
2021/06/14 14:07:58;;;;;;;;;0.00;0.00;;;;;;;;5074151;28;9062;-42
2021/06/14 14:10:24;;;;;;;;;0.00;0.00;;;;;;;;5078101;27;8829;-41
2021/06/14 14:12:50;;;;;;;;;0.00;0.00;;;;;;;;5099810;27;8964;-45
2021/06/14 14:15:15;;;;;;;;;0.00;0.00;;;;;;;;5099040;27;8800;-42
2021/06/14 14:17:41;;;;;;;;;0.00;0.00;;;;;;;;5096049;27;9072;-43
2021/06/14 14:20:07;;;;;;;;;0.00;0.00;;;;;;;;5094920;27;9566;-42
2021/06/14 14:22:32;;;;;;;;;0.00;0.00;;;;;;;;5093314;27;8808;-44
2021/06/14 14:24:58;;;;;;;;;0.33;0.33;;;;;;;;5093690;27;8791;-45
2021/06/14 14:27:26;;;;;;;;;0.33;0.33;;;;;;;;5092382;27;10163;-40
2021/06/14 14:29:52;;;;;;;;;1.00;1.00;;;;;;;;5093985;27;8920;-44
2021/06/14 14:32:17;;;;;;;;;0.75;0.75;;;;;;;;5089279;28;8773;-43
2021/06/14 14:34:44;;;;;;;;;0.00;0.00;;;;;;;;5082545;27;8800;-45
2021/06/14 14:37:29;;;;;;;;;0.25;0.00;;;;;;;;5097197;27;8908;-42
2021/06/14 14:40:01;;;;;;;;;1.25;0.50;;;;;;;;5097313;27;8782;-47
2021/06/14 14:42:26;;;;;;;;;1.00;1.00;;;;;;;;5094199;28;8789;-50
2021/06/14 14:44:51;;;;;;;;;0.00;0.00;;;;;;;;5095539;27;8777;-48
2021/06/14 14:47:17;;;;;;;;;0.67;0.67;;;;;;;;5085908;28;8774;-45
2021/06/14 14:49:42;;;;;;;;;0.67;0.67;;;;;;;;5076687;28;8801;-47
2021/06/14 14:52:08;;;;;;;;;1.00;1.00;;;;;;;;5075739;28;8797;-43
2021/06/14 14:54:33;;;;;;;;;2.25;2.00;;;;;;;;5075450;28;8784;-47
2021/06/14 14:56:59;;;;;;;;;3.00;2.33;;;;;;;;5072978;28;8809;-47